This is the latest recevied weather packets stored in our database for station/object DK8HC-WX. If no packets are shown the sender has not sent any weather packets the latest 10 day(s).
| Time | Temp. | Humidity | Pressure | Rain* | Wind** | Luminosity | Snow |
|---|---|---|---|---|---|---|---|
| 1777731102 | 33.33° C | 30% | 1019.7 hPa | - | - | - | - |
| 1777730502 | 34.44° C | 28% | 1019.8 hPa | - | - | - | - |
| 1777729902 | 33.33° C | 27% | 1019.7 hPa | - | - | - | - |
| 1777729302 | 32.78° C | 29% | 1020.1 hPa | - | - | - | - |
| 1777728702 | 33.33° C | 26% | 1019.7 hPa | - | - | - | - |
| 1777728102 | 35.56° C | 24% | 1020.1 hPa | - | - | - | - |
| 1777727502 | 36.11° C | 25% | 1020.4 hPa | - | - | - | - |
| 1777726902 | 33.89° C | 28% | 1020.7 hPa | - | - | - | - |
| 1777726302 | 32.78° C | 27% | 1020.5 hPa | - | - | - | - |
| 1777725701 | 31.67° C | 29% | 1020.7 hPa | - | - | - | - |
| 1777725101 | 31.11° C | 29% | 1020.7 hPa | - | - | - | - |
| 1777724501 | 30° C | 30% | 1020.6 hPa | - | - | - | - |
| 1777723902 | 28.89° C | 29% | 1020.5 hPa | - | - | - | - |
| 1777723301 | 31.11° C | 28% | 1020.9 hPa | - | - | - | - |
| 1777722701 | 31.11° C | 30% | 1021.4 hPa | - | - | - | - |
| 1777722101 | 30° C | 29% | 1021.2 hPa | - | - | - | - |
| 1777721501 | 30.56° C | 31% | 1021.2 hPa | - | - | - | - |
| 1777720901 | 28.33° C | 32% | 1021.1 hPa | - | - | - | - |
| 1777720301 | 29.44° C | 34% | 1021.6 hPa | - | - | - | - |
| 1777719701 | 28.89° C | 33% | 1021.6 hPa | - | - | - | - |
| 1777719101 | 27.78° C | 32% | 1021.4 hPa | - | - | - | - |
| 1777718501 | 27.22° C | 34% | 1021.5 hPa | - | - | - | - |
| 1777717901 | 27.22° C | 33% | 1021.5 hPa | - | - | - | - |
| 1777717301 | 27.22° C | 34% | 1021.7 hPa | - | - | - | - |
| 1777716701 | 26.67° C | 35% | 1021.8 hPa | - | - | - | - |
* Rain since midnight (hover to see other rain measurements)
** Current wind speed in m/s (hover to see current wind gust speed)